sensor_id;sensor_type;location;lat;lon;timestamp;pressure;altitude;pressure_sealevel;temperature;humidity
75188;BME280;63762;51.334;22.108;2024-01-30T00:04:03;103741.95;;;1.32;77.40
75188;BME280;63762;51.334;22.108;2024-01-30T00:14:10;103733.03;;;1.24;77.86
75188;BME280;63762;51.334;22.108;2024-01-30T00:24:17;103742.69;;;1.13;78.03
75188;BME280;63762;51.334;22.108;2024-01-30T00:34:24;103741.78;;;1.12;77.97
75188;BME280;63762;51.334;22.108;2024-01-30T00:44:31;103729.41;;;1.10;77.91
75188;BME280;63762;51.334;22.108;2024-01-30T00:54:38;103715.22;;;1.02;78.10
75188;BME280;63762;51.334;22.108;2024-01-30T01:04:45;103708.94;;;0.89;78.42
75188;BME280;63762;51.334;22.108;2024-01-30T01:14:53;103699.20;;;0.87;78.36
75188;BME280;63762;51.334;22.108;2024-01-30T01:25:00;103702.69;;;0.80;78.33
75188;BME280;63762;51.334;22.108;2024-01-30T01:35:07;103695.62;;;0.82;78.17
75188;BME280;63762;51.334;22.108;2024-01-30T01:45:14;103691.25;;;0.85;77.87
75188;BME280;63762;51.334;22.108;2024-01-30T01:55:21;103674.48;;;0.89;77.57
75188;BME280;63762;51.334;22.108;2024-01-30T02:05:28;103662.98;;;0.83;77.53
75188;BME280;63762;51.334;22.108;2024-01-30T02:15:35;103649.76;;;0.92;77.09
75188;BME280;63762;51.334;22.108;2024-01-30T02:25:43;103657.70;;;0.90;76.84
75188;BME280;63762;51.334;22.108;2024-01-30T02:35:50;103654.21;;;0.94;76.56
75188;BME280;63762;51.334;22.108;2024-01-30T02:45:57;103643.66;;;1.00;76.36
75188;BME280;63762;51.334;22.108;2024-01-30T02:56:04;103639.13;;;0.89;76.44
75188;BME280;63762;51.334;22.108;2024-01-30T03:06:11;103643.63;;;0.96;76.15
75188;BME280;63762;51.334;22.108;2024-01-30T03:16:18;103642.67;;;0.88;76.44
75188;BME280;63762;51.334;22.108;2024-01-30T03:26:25;103642.65;;;0.85;76.31
75188;BME280;63762;51.334;22.108;2024-01-30T03:36:33;103636.48;;;0.84;76.32
75188;BME280;63762;51.334;22.108;2024-01-30T03:46:40;103625.89;;;0.86;76.07
75188;BME280;63762;51.334;22.108;2024-01-30T03:56:47;103624.96;;;0.81;76.33
75188;BME280;63762;51.334;22.108;2024-01-30T04:06:54;103619.64;;;0.78;76.25
75188;BME280;63762;51.334;22.108;2024-01-30T04:17:01;103615.21;;;0.74;76.40
75188;BME280;63762;51.334;22.108;2024-01-30T04:27:08;103611.68;;;0.76;76.05
75188;BME280;63762;51.334;22.108;2024-01-30T04:37:16;103610.79;;;0.73;76.26
75188;BME280;63762;51.334;22.108;2024-01-30T04:47:22;103610.79;;;0.76;76.07
75188;BME280;63762;51.334;22.108;2024-01-30T04:57:30;103605.51;;;0.73;76.25
75188;BME280;63762;51.334;22.108;2024-01-30T05:07:38;103613.41;;;0.67;76.10
75188;BME280;63762;51.334;22.108;2024-01-30T05:17:44;103622.20;;;0.67;76.14
75188;BME280;63762;51.334;22.108;2024-01-30T05:27:51;103615.17;;;0.69;75.99
75188;BME280;63762;51.334;22.108;2024-01-30T05:37:58;103627.52;;;0.67;75.74
75188;BME280;63762;51.334;22.108;2024-01-30T05:48:05;103599.28;;;0.69;75.71
75188;BME280;63762;51.334;22.108;2024-01-30T05:58:12;103626.63;;;0.65;75.56
75188;BME280;63762;51.334;22.108;2024-01-30T06:08:20;103631.95;;;0.67;75.35
75188;BME280;63762;51.334;22.108;2024-01-30T06:18:27;103622.27;;;0.75;75.31
75188;BME280;63762;51.334;22.108;2024-01-30T06:28:34;103614.32;;;0.75;74.90
75188;BME280;63762;51.334;22.108;2024-01-30T06:38:42;103612.63;;;0.83;74.35
75188;BME280;63762;51.334;22.108;2024-01-30T06:51:55;103611.84;;;0.97;74.01
75188;BME280;63762;51.334;22.108;2024-01-30T07:02:02;103616.36;;;1.16;73.22
75188;BME280;63762;51.334;22.108;2024-01-30T07:12:09;103616.45;;;1.39;72.44
75188;BME280;63762;51.334;22.108;2024-01-30T07:22:16;103609.45;;;1.60;71.65
75188;BME280;63762;51.334;22.108;2024-01-30T07:32:23;103605.95;;;1.72;70.96
75188;BME280;63762;51.334;22.108;2024-01-30T07:42:31;103600.71;;;1.99;70.48
75188;BME280;63762;51.334;22.108;2024-01-30T07:52:38;103602.49;;;2.30;69.58
75188;BME280;63762;51.334;22.108;2024-01-30T08:02:45;103618.45;;;2.56;68.58
75188;BME280;63762;51.334;22.108;2024-01-30T08:12:52;103609.52;;;2.82;67.59
75188;BME280;63762;51.334;22.108;2024-01-30T08:22:59;103605.92;;;3.13;66.84
75188;BME280;63762;51.334;22.108;2024-01-30T08:33:06;103597.78;;;3.52;65.69
75188;BME280;63762;51.334;22.108;2024-01-30T08:43:14;103596.77;;;3.74;63.97
75188;BME280;63762;51.334;22.108;2024-01-30T08:53:21;103595.73;;;3.99;63.36
75188;BME280;63762;51.334;22.108;2024-01-30T09:03:28;103587.43;;;4.38;63.21
75188;BME280;63762;51.334;22.108;2024-01-30T09:13:35;103571.03;;;4.81;62.12
75188;BME280;63762;51.334;22.108;2024-01-30T09:23:42;103560.64;;;5.29;60.78
75188;BME280;63762;51.334;22.108;2024-01-30T09:33:49;103563.07;;;5.49;59.62
75188;BME280;63762;51.334;22.108;2024-01-30T09:43:57;103553.28;;;6.10;59.33
75188;BME280;63762;51.334;22.108;2024-01-30T09:54:03;103550.30;;;6.29;56.53
75188;BME280;63762;51.334;22.108;2024-01-30T10:04:11;103530.77;;;6.73;56.03
75188;BME280;63762;51.334;22.108;2024-01-30T10:14:18;103509.05;;;6.88;53.95
75188;BME280;63762;51.334;22.108;2024-01-30T10:24:26;103492.88;;;6.94;52.32
75188;BME280;63762;51.334;22.108;2024-01-30T10:34:32;103497.57;;;7.24;52.85
75188;BME280;63762;51.334;22.108;2024-01-30T10:44:51;103479.05;;;7.53;52.62
75188;BME280;63762;51.334;22.108;2024-01-30T10:54:51;103465.91;;;7.79;52.34
75188;BME280;63762;51.334;22.108;2024-01-30T11:04:59;103463.58;;;8.02;50.73
75188;BME280;63762;51.334;22.108;2024-01-30T11:15:12;103455.64;;;7.98;51.02
75188;BME280;63762;51.334;22.108;2024-01-30T11:25:15;103444.42;;;8.49;51.03
75188;BME280;63762;51.334;22.108;2024-01-30T11:35:17;103435.96;;;8.64;50.13
75188;BME280;63762;51.334;22.108;2024-01-30T11:45:22;103426.04;;;8.66;49.46
75188;BME280;63762;51.334;22.108;2024-01-30T11:55:29;103422.92;;;8.81;48.61
75188;BME280;63762;51.334;22.108;2024-01-30T12:05:36;103406.94;;;9.35;49.05
75188;BME280;63762;51.334;22.108;2024-01-30T12:15:43;103394.66;;;9.54;48.46
75188;BME280;63762;51.334;22.108;2024-01-30T12:25:50;103382.41;;;9.46;47.99
75188;BME280;63762;51.334;22.108;2024-01-30T12:36:01;103397.25;;;9.30;48.53
75188;BME280;63762;51.334;22.108;2024-01-30T12:46:05;103393.75;;;8.69;49.64
75188;BME280;63762;51.334;22.108;2024-01-30T12:56:12;103377.89;;;8.31;50.52
75188;BME280;63762;51.334;22.108;2024-01-30T13:06:19;103370.12;;;8.53;50.01
75188;BME280;63762;51.334;22.108;2024-01-30T13:16:26;103368.66;;;8.41;50.65
75188;BME280;63762;51.334;22.108;2024-01-30T13:26:33;103376.70;;;8.09;51.51
75188;BME280;63762;51.334;22.108;2024-01-30T13:36:40;103369.05;;;7.94;51.79
75188;BME280;63762;51.334;22.108;2024-01-30T13:56:57;103364.02;;;7.82;52.47
75188;BME280;63762;51.334;22.108;2024-01-30T14:07:02;103356.80;;;7.51;52.97
75188;BME280;63762;51.334;22.108;2024-01-30T14:17:09;103353.56;;;7.38;53.11
75188;BME280;63762;51.334;22.108;2024-01-30T14:27:16;103352.78;;;7.33;53.23
75188;BME280;63762;51.334;22.108;2024-01-30T14:37:23;103353.77;;;7.29;53.27
75188;BME280;63762;51.334;22.108;2024-01-30T14:47:30;103354.45;;;7.02;53.48
75188;BME280;63762;51.334;22.108;2024-01-30T14:57:37;103362.74;;;6.90;54.16
75188;BME280;63762;51.334;22.108;2024-01-30T15:07:44;103338.83;;;6.82;54.22
75188;BME280;63762;51.334;22.108;2024-01-30T15:17:51;103345.46;;;6.65;54.77
75188;BME280;63762;51.334;22.108;2024-01-30T15:27:59;103338.80;;;6.43;55.59
75188;BME280;63762;51.334;22.108;2024-01-30T15:38:07;103344.77;;;6.13;55.81
75188;BME280;63762;51.334;22.108;2024-01-30T15:48:13;103344.84;;;6.10;56.00
75188;BME280;63762;51.334;22.108;2024-01-30T15:58:20;103344.31;;;5.91;56.32
75188;BME280;63762;51.334;22.108;2024-01-30T16:08:27;103354.26;;;5.80;56.77
75188;BME280;63762;51.334;22.108;2024-01-30T16:18:34;103351.91;;;5.64;57.18
75188;BME280;63762;51.334;22.108;2024-01-30T16:28:41;103340.33;;;5.63;57.25
75188;BME280;63762;51.334;22.108;2024-01-30T16:38:48;103342.49;;;5.42;57.91
75188;BME280;63762;51.334;22.108;2024-01-30T16:48:56;103331.97;;;5.33;58.59
75188;BME280;63762;51.334;22.108;2024-01-30T16:59:03;103329.39;;;5.27;58.89
75188;BME280;63762;51.334;22.108;2024-01-30T17:09:10;103325.21;;;5.11;59.68
75188;BME280;63762;51.334;22.108;2024-01-30T17:19:17;103329.77;;;5.04;60.07
75188;BME280;63762;51.334;22.108;2024-01-30T17:29:24;103323.55;;;5.04;60.17
75188;BME280;63762;51.334;22.108;2024-01-30T17:39:31;103316.73;;;4.85;60.79
75188;BME280;63762;51.334;22.108;2024-01-30T17:49:38;103317.65;;;4.82;60.58
75188;BME280;63762;51.334;22.108;2024-01-30T17:59:46;103318.70;;;4.72;60.61
75188;BME280;63762;51.334;22.108;2024-01-30T18:09:53;103317.09;;;4.60;61.02
75188;BME280;63762;51.334;22.108;2024-01-30T18:20:00;103296.94;;;4.40;61.32
75188;BME280;63762;51.334;22.108;2024-01-30T18:30:08;103307.12;;;4.06;61.95
75188;BME280;63762;51.334;22.108;2024-01-30T18:40:14;103308.91;;;4.04;62.06
75188;BME280;63762;51.334;22.108;2024-01-30T18:50:21;103293.13;;;3.89;62.05
75188;BME280;63762;51.334;22.108;2024-01-30T19:00:29;103295.88;;;3.82;62.46
75188;BME280;63762;51.334;22.108;2024-01-30T19:10:36;103298.67;;;3.68;62.44
75188;BME280;63762;51.334;22.108;2024-01-30T19:20:43;103302.21;;;3.70;62.53
75188;BME280;63762;51.334;22.108;2024-01-30T19:30:50;103287.28;;;3.54;62.77
75188;BME280;63762;51.334;22.108;2024-01-30T19:40:57;103279.34;;;3.51;62.86
75188;BME280;63762;51.334;22.108;2024-01-30T19:51:07;103279.54;;;3.27;63.67
75188;BME280;63762;51.334;22.108;2024-01-30T20:01:11;103282.20;;;3.29;63.65
75188;BME280;63762;51.334;22.108;2024-01-30T20:11:18;103273.41;;;3.21;63.83
75188;BME280;63762;51.334;22.108;2024-01-30T20:21:25;103269.13;;;3.03;64.61
75188;BME280;63762;51.334;22.108;2024-01-30T20:31:33;103252.28;;;3.03;64.70
75188;BME280;63762;51.334;22.108;2024-01-30T20:41:41;103253.27;;;2.91;65.23
75188;BME280;63762;51.334;22.108;2024-01-30T20:51:47;103256.92;;;2.78;65.80
75188;BME280;63762;51.334;22.108;2024-01-30T21:01:54;103253.45;;;2.70;66.05
75188;BME280;63762;51.334;22.108;2024-01-30T21:12:01;103249.91;;;2.70;66.17
75188;BME280;63762;51.334;22.108;2024-01-30T21:22:08;103242.88;;;2.61;66.66
75188;BME280;63762;51.334;22.108;2024-01-30T21:32:15;103230.54;;;2.51;67.15
75188;BME280;63762;51.334;22.108;2024-01-30T21:42:23;103235.01;;;2.43;67.39
75188;BME280;63762;51.334;22.108;2024-01-30T21:52:30;103234.20;;;2.35;67.83
75188;BME280;63762;51.334;22.108;2024-01-30T22:02:37;103241.30;;;2.27;68.27
75188;BME280;63762;51.334;22.108;2024-01-30T22:12:44;103243.12;;;2.22;68.61
75188;BME280;63762;51.334;22.108;2024-01-30T22:22:51;103238.74;;;2.12;68.99
75188;BME280;63762;51.334;22.108;2024-01-30T22:32:58;103239.63;;;2.09;69.25
75188;BME280;63762;51.334;22.108;2024-01-30T22:43:05;103237.87;;;2.07;69.49
75188;BME280;63762;51.334;22.108;2024-01-30T22:53:13;103243.15;;;2.13;69.20
75188;BME280;63762;51.334;22.108;2024-01-30T23:03:21;103230.81;;;2.06;69.71
75188;BME280;63762;51.334;22.108;2024-01-30T23:13:27;103223.77;;;1.99;69.89
75188;BME280;63762;51.334;22.108;2024-01-30T23:23:34;103208.70;;;1.99;70.04
75188;BME280;63762;51.334;22.108;2024-01-30T23:33:41;103210.52;;;1.93;70.44
75188;BME280;63762;51.334;22.108;2024-01-30T23:43:48;103213.05;;;2.14;69.72
75188;BME280;63762;51.334;22.108;2024-01-30T23:53:55;103199.82;;;2.06;70.10
